Albert, OK

1:38 PM CDT on September 22, 2014 (GMT -0500)
Peck's country | Change Station
CLOSE
Current Station
Personal Weather Station
Location: Anadarko, OK
Elevation: 1255 ft
Nearby Weather Stations

Elev 1255 ft 35.10 °N, 98.32 °W | Updated 8 minutes ago

Clear
Clear
84.1 °F
Feels Like 82 °F
N
2.0
Wind Variable Wind from ENE
Gusts 12.0 mph

Today
High -- | Low -- °F
--% Chance of Precip.
Yesterday
High -- | Low -- °F
Precip. -- in
7:21 AM 7:30 PM
Waning Crescent, 2% visible
Pressure 30.27 in
Visibility 10.0 miles
Clouds Clear
Heat Index 82 °F
Dew Point 48 °F
Humidity 28%
Rainfall 0.00 in
Snow Depth Not available.
UV 9 out of 12
Pollen 9.80 out of 12
Air Quality Not available.
Flu Activity Not available.
METAR KRQO 221835Z AUTO 08005KT 10SM CLR 25/06 A3027 RMK AO2

More Conditions Fewer Conditions

Pressure 30.27 in
Visibility 10.0 miles
Clouds Clear
Heat Index 82 °F
Dew Point 48 °F
Humidity 28%
Rainfall 0.00 in
Snow Depth Not available.
UV 9 out of 12
Pollen 9.80 out of 12
Air Quality Not available.
Flu Activity Not available.
METAR KRQO 221835Z AUTO 08005KT 10SM CLR 25/06 A3027 RMK AO2

More Conditions Fewer Conditions

10-Day Weather Forecast

Almanac

Astronomy

Sep. 22, 2014 Rise Set
Actual Time 7:21 AM CDT 7:30 PM CDT
Civil Twilight 6:56 AM CDT 7:55 PM CDT
Nautical Twilight 6:26 AM CDT 8:25 PM CDT
Astronomical Twilight 5:56 AM CDT 8:55 PM CDT
Moon 5:54 AM CDT 6:37 PM CDT
Length of Visible Light 12h 59m
Length of Day
12h 08m
Tomorrow will be 2m 12s shorter.
Waning Crescent, 2% of the Moon is Illuminated
Today
Waning Crescent
Sep 24
New
Oct 1
First Quarter
Oct 8
Full
Oct 15
Last Quarter

Today's Extremes

State Highs State Lows

Community

WunderPhotos

Upload Photos

1,755,507 photos uploaded!

WunderBlogs® & News

Nearby

Snow Depth

Station Depth Elevation
No new snow has been reported.

Earthquake Activity

City Distance Mag. Time & Date
Medford, Oklahoma 115 miles 3.2 2:10 AM CDT
2014-09-20
Luther, Oklahoma 80 miles 2.7 4:47 PM CDT
2014-09-19
Guthrie, Oklahoma 69 miles 3.6 12:23 PM CDT
2014-09-19
Jones, Oklahoma 68 miles 2.8 1:13 AM CDT
2014-09-19
Minimum magnitude displayed is 2.5.

Coastal Water Temperatures

Place Temperature
No Stations Reporting

Nearby Weather Stations